Time;durP1;ratioP1;P1;durP2;ratioP2;P2;SDS_P1;SDS_P2;PMS_P1;PMS_P2;Temp;Humidity;BMP_temperature;BMP_pressure;BME280_temperature;BME280_humidity;BME280_pressure;Samples;Min_cycle;Max_cycle;Signal;HPM_P1;HPM_P2
2021/07/12 00:00:23;;;;;;;16.00;7.77;;;;;;;12.96;100.00;97960.94;4983528;28;20952;-69
2021/07/12 00:02:53;;;;;;;17.80;9.83;;;;;;;12.97;100.00;97962.59;4982988;28;20221;-68
2021/07/12 00:05:22;;;;;;;13.13;8.37;;;;;;;13.01;100.00;97963.88;4983802;28;20209;-69
2021/07/12 00:07:50;;;;;;;15.33;8.47;;;;;;;13.06;100.00;97962.50;4982721;28;20624;-69
2021/07/12 00:10:21;;;;;;;16.83;10.43;;;;;;;13.12;100.00;97959.16;4982963;28;20630;-69
2021/07/12 00:12:50;;;;;;;18.07;9.73;;;;;;;13.08;100.00;97957.84;4979851;28;20225;-68
2021/07/12 00:15:20;;;;;;;13.43;8.37;;;;;;;13.09;100.00;97954.19;4981435;28;20682;-69
2021/07/12 00:17:48;;;;;;;16.03;9.53;;;;;;;13.11;100.00;97957.50;4982929;28;20205;-69
2021/07/12 00:20:19;;;;;;;22.63;8.93;;;;;;;13.02;100.00;97956.72;4981789;28;20233;-69
2021/07/12 00:22:48;;;;;;;18.97;9.40;;;;;;;12.96;100.00;97960.94;4986374;28;20237;-68
2021/07/12 00:25:19;;;;;;;12.27;7.27;;;;;;;12.90;100.00;97953.69;4983270;28;20210;-69
2021/07/12 00:27:47;;;;;;;8.97;6.50;;;;;;;12.86;100.00;97949.72;4982594;28;20212;-68
2021/07/12 00:30:17;;;;;;;12.33;7.57;;;;;;;12.84;100.00;97941.91;4983562;28;20210;-68
2021/07/12 00:32:46;;;;;;;6.83;6.23;;;;;;;12.86;100.00;97944.41;4984479;28;20237;-69
2021/07/12 00:35:15;;;;;;;8.23;6.47;;;;;;;12.77;100.00;97946.31;4983083;28;20201;-68
2021/07/12 00:37:44;;;;;;;5.90;5.40;;;;;;;12.70;100.00;97945.38;4983875;28;20210;-69
2021/07/12 00:40:15;;;;;;;7.13;6.43;;;;;;;12.72;100.00;97948.69;4983336;28;20222;-68
2021/07/12 00:42:44;;;;;;;9.53;7.00;;;;;;;12.75;100.00;97935.03;4979966;28;20252;-69
2021/07/12 00:45:19;;;;;;;7.60;6.93;;;;;;;12.76;100.00;97949.16;4983854;28;20709;-68
2021/07/12 00:47:48;;;;;;;11.00;7.33;;;;;;;12.71;100.00;97944.38;4982485;28;20267;-68
2021/07/12 00:50:17;;;;;;;15.50;9.30;;;;;;;12.82;100.00;97937.81;4981477;28;20209;-69
2021/07/12 00:52:47;;;;;;;8.40;7.53;;;;;;;12.88;100.00;97937.06;4982227;28;20222;-68
2021/07/12 00:55:19;;;;;;;20.47;9.77;;;;;;;12.74;100.00;97925.41;4985236;28;20228;-70
2021/07/12 00:57:48;;;;;;;10.20;6.67;;;;;;;12.74;100.00;97939.53;4981548;28;20213;-68
2021/07/12 01:00:17;;;;;;;16.17;7.37;;;;;;;12.80;100.00;97924.66;4981008;28;20220;-68
2021/07/12 01:02:45;;;;;;;28.90;10.00;;;;;;;12.72;100.00;97914.13;4980619;28;20221;-67
2021/07/12 01:05:16;;;;;;;9.33;6.17;;;;;;;12.71;100.00;97921.28;4981102;28;20666;-70
2021/07/12 01:07:45;;;;;;;13.43;8.27;;;;;;;12.72;100.00;97920.28;4983023;28;20206;-69
2021/07/12 01:10:17;;;;;;;14.73;7.40;;;;;;;12.72;100.00;97922.09;4978389;28;20198;-67
2021/07/12 01:12:54;;;;;;;12.90;6.53;;;;;;;12.69;100.00;97923.28;4982791;28;20803;-68
2021/07/12 01:15:25;;;;;;;20.20;8.10;;;;;;;12.70;100.00;97922.28;4977426;28;20231;-69
2021/07/12 01:17:59;;;;;;;21.57;7.10;;;;;;;12.70;100.00;97916.97;4980113;28;20205;-70
2021/07/12 01:21:00;;;;;;;24.63;10.20;;;;;;;12.72;100.00;97914.97;4980485;28;20217;-69
2021/07/12 01:23:36;;;;;;;18.43;7.73;;;;;;;12.73;100.00;97913.94;4981329;28;20233;-66
2021/07/12 01:26:35;;;;;;;20.70;8.03;;;;;;;12.69;100.00;97912.66;4984983;28;20201;-70
2021/07/12 01:29:14;;;;;;;34.60;9.70;;;;;;;12.64;100.00;97906.22;4984199;28;20209;-67
2021/07/12 01:32:04;;;;;;;11.70;8.00;;;;;;;12.69;100.00;97902.03;4977270;28;20589;-69
2021/07/12 01:34:37;;;;;;;13.83;7.30;;;;;;;12.69;100.00;97902.03;4979267;28;20205;-69
2021/07/12 01:37:10;;;;;;;14.20;6.43;;;;;;;12.63;100.00;97904.56;4976825;28;20206;-67
2021/07/12 01:39:43;;;;;;;14.17;7.57;;;;;;;12.56;100.00;97901.78;4978948;28;20202;-68
2021/07/12 01:42:17;;;;;;;6.50;5.97;;;;;;;12.50;100.00;97899.84;4985156;28;20226;-67
2021/07/12 01:44:51;;;;;;;7.67;6.90;;;;;;;12.53;100.00;97897.66;4983776;28;20209;-69
2021/07/12 01:47:25;;;;;;;22.70;8.37;;;;;;;12.53;100.00;97896.81;4977831;28;20205;-66
2021/07/12 01:50:02;;;;;;;8.67;5.67;;;;;;;12.55;100.00;97882.38;4982657;28;20610;-69
2021/07/12 01:52:35;;;;;;;7.77;6.23;;;;;;;12.48;100.00;97884.06;4987864;28;20228;-69
2021/07/12 01:55:09;;;;;;;13.30;6.37;;;;;;;12.43;100.00;97889.94;4986135;28;20210;-69
2021/07/12 01:57:43;;;;;;;14.57;8.40;;;;;;;12.40;100.00;97892.94;4987684;28;20599;-69
2021/07/12 02:00:12;;;;;;;7.53;6.40;;;;;;;12.41;100.00;97881.31;4984805;28;20210;-70
2021/07/12 02:02:43;;;;;;;7.97;7.37;;;;;;;12.42;100.00;97880.31;4984584;28;20229;-68
2021/07/12 02:05:15;;;;;;;6.83;6.33;;;;;;;12.37;100.00;97884.50;4985251;28;20209;-67
2021/07/12 02:07:44;;;;;;;8.17;7.57;;;;;;;12.28;100.00;97873.94;4986409;28;20214;-68
2021/07/12 02:10:13;;;;;;;7.17;6.57;;;;;;;12.26;100.00;97869.78;4985423;28;20206;-68
2021/07/12 02:12:42;;;;;;;6.57;6.13;;;;;;;12.26;100.00;97867.97;4984767;28;20233;-68
2021/07/12 02:15:11;;;;;;;7.27;6.63;;;;;;;12.16;100.00;97862.91;4985466;28;20213;-68
2021/07/12 02:17:40;;;;;;;6.80;6.10;;;;;;;12.16;100.00;97854.13;4983593;28;20202;-68
2021/07/12 02:20:10;;;;;;;6.67;6.17;;;;;;;12.02;100.00;97855.72;4986055;28;20209;-69
2021/07/12 02:22:41;;;;;;;5.97;5.67;;;;;;;11.96;100.00;97848.41;4989193;28;20645;-69
2021/07/12 02:25:11;;;;;;;6.03;5.63;;;;;;;11.82;100.00;97840.19;4985128;28;20201;-69
2021/07/12 02:27:39;;;;;;;6.17;5.57;;;;;;;11.76;100.00;97843.53;4982871;28;20210;-70
2021/07/12 02:30:08;;;;;;;7.23;6.53;;;;;;;11.73;100.00;97843.91;4984271;28;20217;-69
2021/07/12 02:32:37;;;;;;;6.23;5.70;;;;;;;11.67;100.00;97842.75;4985655;28;20639;-69
2021/07/12 02:35:07;;;;;;;6.40;6.00;;;;;;;11.60;100.00;97843.66;4983161;28;20210;-70
2021/07/12 02:37:39;;;;;;;6.33;5.83;;;;;;;11.55;100.00;97833.56;4985076;28;20205;-68
2021/07/12 02:40:10;;;;;;;5.97;5.57;;;;;;;11.52;100.00;97839.22;4984979;28;20201;-69
2021/07/12 02:42:39;;;;;;;6.77;6.17;;;;;;;11.49;100.00;97832.41;4982664;28;20225;-69
2021/07/12 02:45:08;;;;;;;5.80;5.40;;;;;;;11.51;100.00;97835.72;4980441;28;20213;-67
2021/07/12 02:47:36;;;;;;;5.53;5.17;;;;;;;11.47;100.00;97828.28;4986079;28;20213;-67
2021/07/12 02:50:06;;;;;;;5.60;5.10;;;;;;;11.41;100.00;97825.34;4982742;28;20548;-69
2021/07/12 02:52:36;;;;;;;7.40;6.20;;;;;;;11.34;100.00;97827.00;4984325;28;20229;-68
2021/07/12 02:55:07;;;;;;;6.67;6.27;;;;;;;11.33;100.00;97829.84;4980547;28;20202;-69
2021/07/12 02:57:35;;;;;;;6.07;5.67;;;;;;;11.29;100.00;97838.16;4985399;28;20213;-68
2021/07/12 03:00:04;;;;;;;5.97;5.50;;;;;;;11.29;100.00;97839.97;4982915;28;20228;-70
2021/07/12 03:02:32;;;;;;;5.63;5.23;;;;;;;11.27;100.00;97840.16;4982996;28;20630;-69
2021/07/12 03:05:00;;;;;;;6.50;6.00;;;;;;;11.26;100.00;97848.28;4983936;28;20216;-69
2021/07/12 03:07:30;;;;;;;5.40;5.10;;;;;;;11.17;100.00;97844.00;4983914;28;20210;-69
2021/07/12 03:10:01;;;;;;;5.93;5.53;;;;;;;11.11;100.00;97843.69;4984301;28;20206;-69
2021/07/12 03:12:33;;;;;;;6.33;5.83;;;;;;;11.13;100.00;97840.84;4982973;28;20228;-69
2021/07/12 03:15:05;;;;;;;5.63;5.33;;;;;;;11.08;100.00;97837.88;4983911;28;20222;-68
2021/07/12 03:17:36;;;;;;;5.70;5.30;;;;;;;11.03;100.00;97843.72;4984578;28;20212;-70
2021/07/12 03:20:06;;;;;;;6.13;5.67;;;;;;;11.01;100.00;97837.75;4981544;28;20744;-67
2021/07/12 03:22:35;;;;;;;6.27;5.87;;;;;;;11.00;100.00;97833.47;4982125;28;20229;-70
2021/07/12 03:25:05;;;;;;;7.00;6.50;;;;;;;10.99;100.00;97831.81;4980500;28;20217;-68
2021/07/12 03:27:36;;;;;;;6.73;6.23;;;;;;;10.93;100.00;97835.97;4983811;28;20206;-68
2021/07/12 03:30:05;;;;;;;6.37;5.77;;;;;;;11.02;100.00;97839.41;4984165;28;20268;-69
2021/07/12 03:32:34;;;;;;;7.40;6.80;;;;;;;11.06;100.00;97845.19;4983033;28;20221;-69
2021/07/12 03:35:03;;;;;;;6.93;6.27;;;;;;;11.12;100.00;97841.84;4981469;28;20598;-69
2021/07/12 03:37:31;;;;;;;15.10;8.43;;;;;;;11.23;100.00;97838.84;4982895;28;20212;-67
2021/07/12 03:39:59;;;;;;;13.23;7.40;;;;;;;11.35;100.00;97838.47;4983875;28;20209;-68
2021/07/12 03:42:27;;;;;;;24.83;9.57;;;;;;;11.36;100.00;97848.06;4983347;28;20224;-69
2021/07/12 03:44:56;;;;;;;15.27;8.57;;;;;;;11.41;100.00;97851.03;4980202;28;20206;-69
2021/07/12 03:47:27;;;;;;;14.50;7.97;;;;;;;11.52;100.00;97847.97;4983923;28;20210;-68
2021/07/12 03:50:03;;;;;;;22.67;9.67;;;;;;;11.54;100.00;97839.84;4983021;28;20209;-68
2021/07/12 03:52:34;;;;;;;23.27;8.43;;;;;;;11.60;100.00;97843.66;4984381;28;21059;-67
2021/07/12 03:55:02;;;;;;;14.93;8.27;;;;;;;11.60;100.00;97849.78;4982106;28;20206;-68
2021/07/12 03:57:30;;;;;;;11.47;7.60;;;;;;;11.66;100.00;97849.06;4982294;28;20240;-68
2021/07/12 04:00:00;;;;;;;17.40;9.07;;;;;;;11.73;100.00;97843.91;4982920;28;20412;-68
2021/07/12 04:02:31;;;;;;;29.43;11.43;;;;;;;11.78;100.00;97851.34;4982333;28;20236;-69
2021/07/12 04:04:59;;;;;;;30.13;8.57;;;;;;;11.76;100.00;97848.03;4979949;28;20210;-71
2021/07/12 04:07:27;;;;;;;15.43;8.23;;;;;;;11.76;100.00;97851.50;4985673;28;20213;-69
2021/07/12 04:09:56;;;;;;;14.03;7.80;;;;;;;11.76;100.00;97846.19;4980343;28;20212;-67
2021/07/12 04:12:24;;;;;;;10.93;8.80;;;;;;;11.83;100.00;97846.34;4983597;28;20225;-68
2021/07/12 04:14:52;;;;;;;16.53;7.50;;;;;;;11.84;100.00;97853.31;4983458;28;20888;-67
2021/07/12 04:17:22;;;;;;;29.93;11.07;;;;;;;11.83;100.00;97855.13;4980101;28;20205;-70
2021/07/12 04:19:53;;;;;;;13.43;8.77;;;;;;;11.93;100.00;97854.06;4981220;28;20296;-69
2021/07/12 04:22:21;;;;;;;8.53;7.00;;;;;;;11.92;100.00;97847.09;4984185;28;20238;-69
2021/07/12 04:24:49;;;;;;;19.43;8.23;;;;;;;11.87;100.00;97855.59;4978573;28;20210;-68
2021/07/12 04:27:17;;;;;;;18.70;8.17;;;;;;;11.97;100.00;97852.72;4983918;28;20218;-70
2021/07/12 04:29:45;;;;;;;9.53;7.73;;;;;;;12.01;100.00;97859.38;4977354;28;20685;-69
2021/07/12 04:32:13;;;;;;;10.90;7.03;;;;;;;11.96;100.00;97849.22;4981744;28;20229;-69
2021/07/12 04:34:43;;;;;;;12.70;6.60;;;;;;;12.00;100.00;97845.25;4983061;28;20566;-69
2021/07/12 04:37:10;;;;;;;10.97;8.00;;;;;;;12.01;100.00;97840.78;4984094;28;20201;-68
2021/07/12 04:39:38;;;;;;;21.00;8.17;;;;;;;11.96;100.00;97840.44;4987329;28;20213;-71
2021/07/12 04:42:06;;;;;;;14.90;8.70;;;;;;;12.04;100.00;97842.22;4982778;28;20233;-69
2021/07/12 04:44:34;;;;;;;8.67;6.60;;;;;;;11.88;100.00;97842.13;4982229;28;20221;-68
2021/07/12 04:47:03;;;;;;;6.43;6.03;;;;;;;11.94;100.00;97850.44;4984582;28;20214;-68
2021/07/12 04:49:31;;;;;;;8.60;7.03;;;;;;;11.98;100.00;97843.75;4980606;28;20657;-69
2021/07/12 04:52:00;;;;;;;7.50;6.90;;;;;;;12.01;100.00;97846.91;4982463;28;20206;-68
2021/07/12 04:54:28;;;;;;;10.67;8.10;;;;;;;12.06;100.00;97857.00;4980656;28;20682;-67
2021/07/12 04:56:57;;;;;;;8.30;7.60;;;;;;;12.09;100.00;97850.50;4983220;28;20721;-70
2021/07/12 04:59:27;;;;;;;10.43;9.00;;;;;;;12.15;100.00;97847.97;4983590;28;20229;-69
2021/07/12 05:01:55;;;;;;;8.63;7.93;;;;;;;12.27;100.00;97840.41;4982192;28;20209;-68
2021/07/12 05:04:23;;;;;;;7.03;6.20;;;;;;;12.38;100.00;97833.84;4976621;28;20209;-69
2021/07/12 05:06:51;;;;;;;6.37;5.50;;;;;;;12.29;100.00;97843.69;4985553;28;20210;-69
2021/07/12 05:09:21;;;;;;;5.23;4.93;;;;;;;12.55;100.00;97842.50;4982495;28;20202;-69
2021/07/12 05:11:49;;;;;;;21.90;7.07;;;;;;;12.65;100.00;97847.53;4979050;28;20694;-68
2021/07/12 05:14:17;;;;;;;7.47;6.73;;;;;;;12.59;100.00;97842.94;4981324;28;20205;-69
2021/07/12 05:16:45;;;;;;;6.37;5.60;;;;;;;12.75;100.00;97847.28;4979120;28;20213;-70
2021/07/12 05:19:14;;;;;;;6.00;5.40;;;;;;;12.73;100.00;97842.16;4983701;28;20242;-67
2021/07/12 05:21:45;;;;;;;7.00;5.40;;;;;;;12.86;100.00;97835.38;4980902;28;20451;-69
2021/07/12 05:24:14;;;;;;;10.23;6.10;;;;;;;12.85;100.00;97836.38;4982522;28;20229;-70
2021/07/12 05:26:44;;;;;;;6.37;5.53;;;;;;;12.92;100.00;97831.97;4983127;28;20221;-70
2021/07/12 05:29:12;;;;;;;6.03;5.53;;;;;;;12.92;100.00;97829.31;4983138;28;20213;-69
2021/07/12 05:31:40;;;;;;;5.83;5.47;;;;;;;12.97;100.00;97821.63;4983955;28;20213;-69
2021/07/12 05:34:08;;;;;;;8.13;5.60;;;;;;;13.02;100.00;97816.56;4982509;28;20226;-69
2021/07/12 05:36:36;;;;;;;11.23;5.90;;;;;;;13.32;100.00;97821.06;4981067;28;20205;-67
2021/07/12 05:39:05;;;;;;;6.67;5.93;;;;;;;13.36;100.00;97824.16;4979772;28;20213;-69
2021/07/12 05:41:33;;;;;;;6.93;6.53;;;;;;;13.38;100.00;97814.13;4981801;28;20213;-71
2021/07/12 05:44:02;;;;;;;6.10;5.70;;;;;;;13.58;100.00;97817.06;4977432;28;20233;-67
2021/07/12 05:46:30;;;;;;;6.53;6.03;;;;;;;13.71;100.00;97819.06;4984517;28;20201;-69
2021/07/12 05:48:58;;;;;;;6.00;5.60;;;;;;;14.00;100.00;97825.28;4980373;28;20556;-67
2021/07/12 05:51:26;;;;;;;6.13;5.63;;;;;;;13.86;100.00;97811.00;4985206;28;20208;-68
2021/07/12 05:53:55;;;;;;;6.63;6.00;;;;;;;13.87;100.00;97818.84;4985760;28;20225;-66
2021/07/12 05:56:23;;;;;;;6.03;5.63;;;;;;;13.62;100.00;97809.53;4981018;28;20202;-67
2021/07/12 05:58:51;;;;;;;6.47;6.03;;;;;;;13.61;100.00;97803.38;4979710;28;20209;-68
2021/07/12 06:01:21;;;;;;;6.87;6.47;;;;;;;13.73;100.00;97809.03;4980063;28;20673;-68
2021/07/12 06:03:49;;;;;;;7.87;7.13;;;;;;;13.66;100.00;97814.31;4980513;28;20225;-68
2021/07/12 06:06:17;;;;;;;8.47;7.87;;;;;;;13.88;100.00;97819.63;4980896;28;20210;-69
2021/07/12 06:08:45;;;;;;;9.30;8.60;;;;;;;14.00;100.00;97812.78;4979745;28;20229;-69
2021/07/12 06:11:16;;;;;;;8.77;7.90;;;;;;;14.02;100.00;97799.28;4976217;28;20293;-69
2021/07/12 06:13:44;;;;;;;9.07;8.17;;;;;;;14.08;100.00;97793.19;4983557;28;20233;-68
2021/07/12 06:16:12;;;;;;;8.93;8.23;;;;;;;14.16;100.00;97795.72;4969290;28;20300;-68
2021/07/12 06:18:41;;;;;;;8.13;7.43;;;;;;;14.36;100.00;97799.56;4982198;28;20700;-70
2021/07/12 06:21:09;;;;;;;8.70;8.00;;;;;;;14.49;100.00;97802.34;4980601;28;20221;-69
2021/07/12 06:23:37;;;;;;;8.20;7.60;;;;;;;14.54;100.00;97805.25;4978743;28;20256;-69
2021/07/12 06:26:05;;;;;;;8.20;7.70;;;;;;;14.66;100.00;97810.88;4974551;28;20213;-70
2021/07/12 06:28:33;;;;;;;8.43;7.83;;;;;;;14.92;100.00;97814.75;4984485;28;20210;-70
2021/07/12 06:31:01;;;;;;;9.40;8.80;;;;;;;14.81;100.00;97820.63;4984556;28;20209;-70
2021/07/12 06:33:29;;;;;;;8.27;7.67;;;;;;;14.94;100.00;97820.69;4986918;28;20249;-66
2021/07/12 06:35:59;;;;;;;9.63;8.73;;;;;;;14.89;100.00;97817.81;4985372;28;20209;-70
2021/07/12 06:38:27;;;;;;;10.50;9.80;;;;;;;15.02;100.00;97819.72;4985349;28;20225;-68
2021/07/12 06:40:55;;;;;;;10.50;9.60;;;;;;;15.23;100.00;97828.69;4984419;28;20217;-68
2021/07/12 06:43:23;;;;;;;10.07;9.17;;;;;;;15.11;100.00;97839.88;4983176;28;20233;-69
2021/07/12 06:45:51;;;;;;;10.00;9.23;;;;;;;15.39;100.00;97840.88;4986010;28;20214;-69
2021/07/12 06:48:19;;;;;;;9.73;9.03;;;;;;;15.40;100.00;97842.50;4983187;28;20698;-69
2021/07/12 06:50:47;;;;;;;11.50;10.50;;;;;;;15.37;100.00;97849.06;4980980;28;20225;-70
2021/07/12 06:53:35;;;;;;;10.60;9.90;;;;;;;15.36;100.00;97846.59;4982657;28;20713;-68
2021/07/12 06:56:03;;;;;;;10.90;10.10;;;;;;;15.60;100.00;97843.41;4982953;28;20213;-69
2021/07/12 06:58:32;;;;;;;10.60;9.90;;;;;;;15.56;100.00;97839.47;4983475;28;20298;-70
2021/07/12 07:01:00;;;;;;;10.47;9.77;;;;;;;15.58;100.00;97829.44;4979595;28;20229;-70
2021/07/12 07:03:28;;;;;;;11.60;10.50;;;;;;;15.88;100.00;97823.78;4977220;28;20237;-69
2021/07/12 07:05:56;;;;;;;10.13;9.43;;;;;;;16.00;100.00;97828.53;4977453;28;20209;-68
2021/07/12 07:08:24;;;;;;;10.77;9.97;;;;;;;15.95;100.00;97823.81;4969967;28;20206;-68
2021/07/12 07:10:54;;;;;;;10.67;9.70;;;;;;;16.08;100.00;97822.19;4967151;28;20236;-69
2021/07/12 07:13:22;;;;;;;9.90;9.20;;;;;;;16.26;100.00;97819.72;4978342;28;20517;-69
2021/07/12 07:15:51;;;;;;;8.57;7.97;;;;;;;16.43;100.00;97820.13;4969168;28;20217;-68
2021/07/12 07:18:19;;;;;;;9.33;8.63;;;;;;;16.51;100.00;97805.72;4974401;28;20209;-67
2021/07/12 07:20:47;;;;;;;10.70;10.00;;;;;;;16.60;100.00;97806.34;4975478;28;20613;-68
2021/07/12 07:23:15;;;;;;;10.60;9.70;;;;;;;16.68;100.00;97799.97;4977262;28;20237;-69
2021/07/12 07:25:43;;;;;;;11.40;10.60;;;;;;;16.71;100.00;97795.00;4977234;28;20213;-69
2021/07/12 07:28:12;;;;;;;10.87;9.90;;;;;;;16.67;100.00;97798.28;4984428;28;20216;-69
2021/07/12 07:30:40;;;;;;;11.30;10.50;;;;;;;16.74;100.00;97797.25;4985518;28;20556;-70
2021/07/12 07:33:08;;;;;;;10.77;10.07;;;;;;;16.97;100.00;97790.63;4984431;28;20252;-68
2021/07/12 07:35:37;;;;;;;10.87;10.17;;;;;;;17.26;100.00;97799.22;4986049;28;20248;-69
2021/07/12 07:38:05;;;;;;;10.83;9.93;;;;;;;17.13;100.00;97791.22;4979972;28;20348;-68
2021/07/12 07:40:33;;;;;;;10.67;9.93;;;;;;;17.13;100.00;97788.53;4982843;28;20341;-70
2021/07/12 07:43:01;;;;;;;8.90;8.10;;;;;;;17.28;100.00;97778.41;4985778;28;20768;-70
2021/07/12 07:45:32;;;;;;;8.87;8.07;;;;;;;17.05;100.00;97771.69;4982751;28;20754;-70
2021/07/12 07:48:00;;;;;;;8.37;7.83;;;;;;;17.28;100.00;97775.72;4980975;28;20213;-70
2021/07/12 07:50:28;;;;;;;8.87;7.80;;;;;;;17.32;100.00;97768.06;4980897;28;20300;-69
2021/07/12 07:52:56;;;;;;;8.57;7.97;;;;;;;17.55;100.00;97761.38;4981008;28;20237;-69
2021/07/12 07:55:24;;;;;;;8.07;7.50;;;;;;;17.56;100.00;97758.47;4981672;28;20225;-70
2021/07/12 07:57:52;;;;;;;8.63;8.13;;;;;;;17.60;100.00;97769.59;4982197;28;20209;-69
2021/07/12 08:00:22;;;;;;;8.67;7.97;;;;;;;17.77;100.00;97754.63;4980523;28;20218;-70
2021/07/12 08:02:51;;;;;;;6.50;6.10;;;;;;;18.12;100.00;97749.88;4983600;28;20252;-69
2021/07/12 08:05:20;;;;;;;8.03;7.23;;;;;;;18.15;100.00;97744.06;4982742;28;20221;-69
2021/07/12 08:07:48;;;;;;;6.93;6.53;;;;;;;18.28;100.00;97749.34;4982195;28;20689;-71
2021/07/12 08:10:19;;;;;;;6.60;6.13;;;;;;;18.58;100.00;97753.19;4983970;28;20237;-69
2021/07/12 08:12:48;;;;;;;6.80;6.30;;;;;;;18.80;100.00;97749.03;4979291;28;20233;-71
2021/07/12 08:15:18;;;;;;;6.93;6.43;;;;;;;18.88;100.00;97753.28;4974640;28;20201;-70
2021/07/12 08:17:47;;;;;;;6.70;6.20;;;;;;;18.89;100.00;97749.53;4980431;28;20209;-70
2021/07/12 08:20:18;;;;;;;6.40;6.00;;;;;;;19.14;97.67;97743.31;4981543;28;20210;-69
2021/07/12 08:22:53;;;;;;;5.43;4.93;;;;;;;18.82;96.86;97743.44;4981369;28;20225;-69
2021/07/12 08:25:21;;;;;;;4.87;4.47;;;;;;;18.92;98.46;97738.34;4981926;28;20256;-70
2021/07/12 08:27:50;;;;;;;6.07;5.67;;;;;;;18.93;97.68;97741.88;4977382;28;20230;-70
2021/07/12 08:30:18;;;;;;;5.13;4.83;;;;;;;19.02;95.24;97737.88;4981937;28;20687;-69
2021/07/12 08:32:47;;;;;;;5.97;5.50;;;;;;;19.23;91.94;97738.44;4979045;28;20233;-69
2021/07/12 08:35:17;;;;;;;5.60;5.10;;;;;;;18.95;94.83;97734.41;4982498;28;20201;-69
2021/07/12 08:37:49;;;;;;;5.50;5.00;;;;;;;18.82;96.07;97731.88;4984204;28;20225;-69
2021/07/12 08:40:18;;;;;;;4.97;4.67;;;;;;;18.75;97.99;97732.78;4978838;28;20819;-70
2021/07/12 08:42:47;;;;;;;5.13;4.83;;;;;;;19.14;95.95;97723.69;4984227;28;20241;-69
2021/07/12 08:45:15;;;;;;;5.50;5.03;;;;;;;19.37;95.92;97718.41;4983359;28;20233;-69
2021/07/12 08:47:43;;;;;;;5.30;4.73;;;;;;;19.53;96.25;97716.94;4982228;28;20217;-69
2021/07/12 08:50:12;;;;;;;4.17;3.83;;;;;;;19.70;93.81;97715.47;4982555;28;20214;-68
2021/07/12 08:52:44;;;;;;;4.40;4.00;;;;;;;19.80;90.75;97711.19;4982873;28;20230;-69
2021/07/12 08:55:13;;;;;;;4.00;3.70;;;;;;;20.22;90.62;97710.31;4982203;28;20210;-68
2021/07/12 08:57:41;;;;;;;9.73;4.60;;;;;;;20.38;91.04;97702.59;4983383;28;20206;-68
2021/07/12 09:00:10;;;;;;;4.83;4.43;;;;;;;20.49;90.23;97709.03;4982217;28;20490;-69
2021/07/12 09:02:38;;;;;;;3.90;3.70;;;;;;;20.71;87.66;97705.72;4981717;28;20225;-70
2021/07/12 09:05:09;;;;;;;3.00;2.90;;;;;;;20.50;85.26;97697.22;4981053;28;20634;-70
2021/07/12 09:07:37;;;;;;;3.33;3.00;;;;;;;20.47;86.05;97693.13;4982942;28;20215;-70
2021/07/12 09:10:11;;;;;;;3.80;3.50;;;;;;;20.70;85.57;97685.22;4982462;28;20206;-69
2021/07/12 09:12:42;;;;;;;3.07;2.97;;;;;;;20.77;83.95;97686.75;4980981;28;20224;-70
2021/07/12 09:15:12;;;;;;;2.63;2.53;;;;;;;20.98;82.99;97683.69;4980876;28;20202;-66
2021/07/12 09:17:42;;;;;;;2.40;2.30;;;;;;;21.23;79.54;97665.31;4982227;28;20225;-69
2021/07/12 09:20:13;;;;;;;3.13;2.90;;;;;;;21.29;78.53;97670.78;4982749;28;20304;-70
2021/07/12 09:22:42;;;;;;;5.23;2.73;;;;;;;21.44;77.06;97673.75;4979779;28;20275;-69
2021/07/12 09:25:13;;;;;;;3.10;2.63;;;;;;;21.59;75.55;97670.50;4982601;28;20643;-68
2021/07/12 09:27:43;;;;;;;3.03;2.53;;;;;;;21.47;73.49;97667.88;4981106;28;20209;-69
2021/07/12 09:30:12;;;;;;;2.80;2.60;;;;;;;21.74;72.53;97671.84;4982098;28;20208;-70
2021/07/12 09:32:42;;;;;;;3.23;2.93;;;;;;;22.03;74.34;97660.97;4983240;28;20729;-69
2021/07/12 09:35:12;;;;;;;3.17;2.93;;;;;;;22.23;71.96;97664.00;4980287;28;20234;-69
2021/07/12 09:37:43;;;;;;;2.10;2.00;;;;;;;22.44;73.33;97653.47;4980977;28;20210;-68
2021/07/12 09:40:16;;;;;;;3.00;2.13;;;;;;;21.98;72.76;97653.63;4981144;28;20592;-69
2021/07/12 09:42:45;;;;;;;2.23;2.13;;;;;;;21.88;69.31;97654.28;4982456;28;20237;-68
2021/07/12 09:45:15;;;;;;;2.20;2.10;;;;;;;22.02;72.73;97641.28;4980540;28;20255;-69
2021/07/12 09:47:45;;;;;;;2.33;2.23;;;;;;;22.02;72.99;97643.16;4983307;28;20205;-69
2021/07/12 09:50:14;;;;;;;2.40;2.30;;;;;;;22.03;71.47;97637.53;4981409;28;20213;-68
2021/07/12 09:52:44;;;;;;;2.20;2.10;;;;;;;22.09;71.36;97636.53;4980691;28;20233;-69
2021/07/12 09:55:27;;;;;;;2.00;1.90;;;;;;;22.23;69.06;97636.16;4981698;28;20210;-69
2021/07/12 09:58:07;;;;;;;2.43;2.23;;;;;;;22.37;69.94;97631.22;4982052;28;20209;-70
2021/07/12 10:00:35;;;;;;;2.53;2.43;;;;;;;22.32;69.09;97634.66;4983732;28;20214;-69
2021/07/12 10:03:03;;;;;;;4.20;2.37;;;;;;;22.17;69.36;97634.47;4982036;28;20237;-70
2021/07/12 10:05:32;;;;;;;2.43;2.30;;;;;;;22.24;71.82;97625.13;4984721;28;20221;-69
2021/07/12 10:08:00;;;;;;;2.50;2.40;;;;;;;22.20;69.80;97626.72;4984109;28;20213;-69
2021/07/12 10:10:30;;;;;;;2.43;2.30;;;;;;;22.25;70.27;97615.16;4986392;28;20512;-68
2021/07/12 10:12:58;;;;;;;2.57;2.47;;;;;;;22.24;68.90;97611.66;4984928;28;20229;-69
2021/07/12 10:15:27;;;;;;;3.33;2.83;;;;;;;22.51;67.58;97612.81;4986845;28;20206;-69
2021/07/12 10:17:57;;;;;;;2.30;2.20;;;;;;;22.50;67.58;97606.59;4980919;28;20214;-69
2021/07/12 10:20:25;;;;;;;2.70;2.43;;;;;;;22.80;68.35;97608.03;4984471;28;20678;-68
2021/07/12 10:22:57;;;;;;;2.50;2.30;;;;;;;22.93;67.83;97598.72;4984020;28;20229;-70
2021/07/12 10:25:29;;;;;;;2.40;2.27;;;;;;;22.85;65.58;97591.06;4982213;28;20721;-69
2021/07/12 10:27:58;;;;;;;2.53;2.33;;;;;;;22.89;65.93;97594.06;4982821;28;20216;-67
2021/07/12 10:30:29;;;;;;;2.10;2.00;;;;;;;22.77;66.01;97586.13;4982642;28;20212;-69
2021/07/12 10:32:59;;;;;;;2.23;2.13;;;;;;;22.80;65.68;97591.81;4983362;28;20225;-69
2021/07/12 10:35:42;;;;;;;3.33;2.23;;;;;;;23.17;62.52;97584.06;4984760;28;20202;-68
2021/07/12 10:38:12;;;;;;;1.90;1.80;;;;;;;23.35;64.22;97586.44;4984582;28;20678;-69
2021/07/12 10:40:53;;;;;;;2.37;2.17;;;;;;;23.68;59.27;97589.13;4987936;28;20762;-70
2021/07/12 10:43:49;;;;;;;3.10;1.80;;;;;;;23.53;58.35;97597.94;4980574;28;20233;-68
2021/07/12 10:46:39;;;;;;;2.47;2.37;;;;;;;23.51;56.97;97597.38;4984186;28;20233;-70
2021/07/12 10:49:39;;;;;;;1.80;1.70;;;;;;;24.32;55.34;97583.84;4984411;28;20268;-70
2021/07/12 10:52:41;;;;;;;2.53;2.33;;;;;;;25.10;52.50;97587.63;4983996;28;20316;-70
2021/07/12 10:55:12;;;;;;;1.83;1.60;;;;;;;25.22;48.25;97588.19;4984040;28;20675;-70
2021/07/12 10:57:42;;;;;;;1.60;1.60;;;;;;;25.46;50.50;97586.84;4983131;28;20698;-68
2021/07/12 11:00:12;;;;;;;2.50;1.40;;;;;;;25.27;50.23;97574.63;4981017;28;20689;-68
2021/07/12 11:02:41;;;;;;;1.50;1.50;;;;;;;25.77;49.08;97560.53;4983148;28;20801;-68
2021/07/12 11:05:14;;;;;;;1.80;1.60;;;;;;;26.34;49.65;97563.13;4980201;28;20210;-71
2021/07/12 11:07:45;;;;;;;1.43;1.43;;;;;;;26.32;48.26;97567.19;4983586;28;20599;-69
2021/07/12 11:10:24;;;;;;;1.67;1.57;;;;;;;26.59;46.48;97567.63;4981985;28;20205;-69
2021/07/12 11:12:56;;;;;;;1.40;1.40;;;;;;;25.46;48.65;97570.56;4983996;28;20292;-68
2021/07/12 11:15:36;;;;;;;1.60;1.60;;;;;;;25.10;50.42;97563.25;4983483;28;20202;-70
2021/07/12 11:18:27;;;;;;;1.40;1.40;;;;;;;25.17;50.30;97568.38;4980405;28;20230;-68
2021/07/12 11:21:05;;;;;;;1.97;1.87;;;;;;;25.09;50.26;97564.31;4983161;28;20434;-69
2021/07/12 11:23:51;;;;;;;2.17;1.97;;;;;;;24.84;51.70;97574.84;4985008;28;20235;-71
2021/07/12 11:26:42;;;;;;;1.63;1.53;;;;;;;25.13;49.80;97566.22;4983233;28;20737;-69
2021/07/12 11:29:35;;;;;;;1.77;1.67;;;;;;;25.90;49.87;97561.84;4984142;28;20213;-67
2021/07/12 11:32:13;;;;;;;2.20;1.47;;;;;;;26.26;47.13;97552.84;4982251;28;21454;-70
2021/07/12 11:34:55;;;;;;;2.57;1.90;;;;;;;25.37;48.98;97559.44;4986815;28;20213;-70
2021/07/12 11:37:27;;;;;;;1.80;1.70;;;;;;;25.22;51.19;97558.38;4982488;28;20586;-70
2021/07/12 11:39:58;;;;;;;2.03;1.90;;;;;;;25.61;48.20;97554.31;4983178;28;20214;-69